MPTO/PTY METAR and TAF weather

Enter ICAO airport designator
Station Type Date Time Source
MPTO METAR 2019/04/25 15:00 UTC NOAA

MPTO 251500Z 33005KT 9999 FEW018 30/21 Q1012 NOSIG


Station Type Date Time Source
MPTO Decoded METAR 2019/04/25 15:00 UTC NOAA

Tocumen, Panama (MPTO) 09-03N 079-22W
Apr 25, 2019 - 11:00 AM EDT / 2019.04.25 1500 UTC
Wind: from the NNW (330 degrees) at 6 MPH (5 KT):0
Visibility: greater than 7 mile(s):0
Sky conditions: mostly clear
Temperature: 86 F (30 C)
Dew Point: 69 F (21 C)
Relative Humidity: 58%
Pressure (altimeter): 29.88 in. Hg (1012 hPa)
ob: MPTO 251500Z 33005KT 9999 FEW018 30/21 Q1012 NOSIG
cycle: 15

Station Type Date Time Source
MPTO TAF 2019/04/25 12:53 UTC NOAA

TAF MPTO 251100Z 2512/2618 34006KT 9999 SCT018
TEMPO 2517/2521 19007KT
TEMPO 2604/2608 VRB02KT

Example: see airport list